createdAt,value
2019-05-11T00:00:15.503Z,75.26
2019-05-11T00:05:21.779Z,75.46
2019-05-11T00:10:27.751Z,75.64
2019-05-11T00:15:34.645Z,76.34
2019-05-11T00:20:40.478Z,76.69
2019-05-11T00:25:46.394Z,76.36
2019-05-11T00:30:52.451Z,76.27
2019-05-11T00:35:58.527Z,75.37
2019-05-11T00:41:04.494Z,75.71
2019-05-11T00:46:15.811Z,75.69
2019-05-11T00:51:21.774Z,75.93
2019-05-11T00:56:27.849Z,75.78
2019-05-11T01:01:34.944Z,74.87
2019-05-11T01:06:41.041Z,75.39
2019-05-11T01:11:47.186Z,75.95
2019-05-11T01:16:53.970Z,76.15
2019-05-11T01:21:59.845Z,77.56
2019-05-11T01:27:05.810Z,78.56
2019-05-11T01:32:12.809Z,79.72
2019-05-11T01:37:18.775Z,80.58
2019-05-11T01:42:24.756Z,79.53
2019-05-11T01:47:31.815Z,80.46
2019-05-11T01:52:38.019Z,80.86
2019-05-11T01:57:43.897Z,81.69
2019-05-11T02:02:50.172Z,81.61
2019-05-11T02:07:56.245Z,81.75
2019-05-11T02:13:03.224Z,81.45
2019-05-11T02:18:11.054Z,81.26
2019-05-11T02:23:21.632Z,80.52
2019-05-11T02:28:37.136Z,79.60
2019-05-11T02:33:45.249Z,78.60
2019-05-11T02:38:51.140Z,78.35
2019-05-11T02:43:57.097Z,78.47
2019-05-11T02:49:03.167Z,78.70
2019-05-11T02:54:11.907Z,78.67
2019-05-11T02:59:17.977Z,78.60
2019-05-11T03:04:24.069Z,78.35
2019-05-11T03:09:30.020Z,78.44
2019-05-11T03:14:36.981Z,78.11
2019-05-11T03:19:43.700Z,78.30
2019-05-11T03:24:49.775Z,78.75
2019-05-11T03:30:00.289Z,78.34
2019-05-11T03:35:03.465Z,78.11
2019-05-11T03:40:10.011Z,78.49
2019-05-11T03:45:16.328Z,78.83
2019-05-11T03:50:22.398Z,78.77
2019-05-11T03:55:28.363Z,78.82
2019-05-11T04:00:34.339Z,78.59
2019-05-11T04:05:40.346Z,78.59
2019-05-11T04:10:46.343Z,78.95
2019-05-11T04:15:52.458Z,79.11
2019-05-11T04:21:00.165Z,79.01
2019-05-11T04:26:06.461Z,78.77
2019-05-11T04:31:12.520Z,78.72
2019-05-11T04:36:18.529Z,78.49
2019-05-11T04:41:24.565Z,78.31
2019-05-11T04:46:30.532Z,78.56
2019-05-11T04:51:36.518Z,78.78
2019-05-11T04:56:42.686Z,78.84
2019-05-11T05:01:48.769Z,78.90
2019-05-11T05:07:00.008Z,78.57
2019-05-11T05:12:02.028Z,77.81
2019-05-11T05:17:09.753Z,77.40
2019-05-11T05:22:16.329Z,76.78
2019-05-11T05:27:22.296Z,75.82
2019-05-11T05:32:28.306Z,75.85
2019-05-11T05:37:34.300Z,75.78
2019-05-11T05:42:40.309Z,75.77
2019-05-11T05:47:46.488Z,77.01
2019-05-11T05:52:52.558Z,74.09
2019-05-11T05:57:58.863Z,71.12
2019-05-11T06:03:05.116Z,68.53
2019-05-11T06:08:11.191Z,65.37
2019-05-11T06:13:17.191Z,63.57
2019-05-11T06:18:23.270Z,64.95
2019-05-11T06:23:29.621Z,60.71
2019-05-11T06:28:35.583Z,61.42
2019-05-11T06:33:41.562Z,61.23
2019-05-11T06:38:47.608Z,59.25
2019-05-11T06:44:01.643Z,59.03
2019-05-11T06:49:01.316Z,55.67
2019-05-11T06:54:07.392Z,56.56
2019-05-11T06:59:13.357Z,57.99
2019-05-11T07:04:20.648Z,55.32
2019-05-11T07:09:26.634Z,54.94
2019-05-11T07:14:32.499Z,55.31
2019-05-11T07:19:38.574Z,55.82
2019-05-11T07:24:44.972Z,56.62
2019-05-11T07:29:52.127Z,56.53
2019-05-11T07:34:58.226Z,56.75
2019-05-11T07:40:05.416Z,55.44
2019-05-11T07:45:11.836Z,55.91
2019-05-11T07:50:18.320Z,55.39
2019-05-11T07:55:24.371Z,54.24
2019-05-11T08:00:30.340Z,54.09
2019-05-11T08:05:38.473Z,53.01
2019-05-11T08:10:44.218Z,51.50
2019-05-11T08:15:50.285Z,52.38
2019-05-11T08:20:58.224Z,53.16
2019-05-11T08:26:05.199Z,53.47
2019-05-11T08:31:11.271Z,53.79
2019-05-11T08:36:18.438Z,53.03
2019-05-11T08:41:24.551Z,52.84
2019-05-11T08:46:30.527Z,53.02
2019-05-11T08:51:38.555Z,53.47
2019-05-11T08:56:44.212Z,53.92
2019-05-11T09:01:50.689Z,51.99
2019-05-11T09:06:58.709Z,53.36
2019-05-11T09:12:03.999Z,53.99
2019-05-11T09:17:09.928Z,54.41
2019-05-11T09:22:15.900Z,53.51
2019-05-11T09:27:22.381Z,53.23
2019-05-11T09:32:28.678Z,52.86
2019-05-11T09:37:34.836Z,52.99
2019-05-11T09:42:40.912Z,54.33
2019-05-11T09:47:47.938Z,54.06
2019-05-11T09:52:54.188Z,53.39
2019-05-11T09:58:00.260Z,51.79
2019-05-11T10:03:08.273Z,49.45
2019-05-11T10:08:14.152Z,50.54
2019-05-11T10:13:20.234Z,52.71
2019-05-11T10:18:28.190Z,50.82
2019-05-11T10:23:34.308Z,49.73
2019-05-11T10:28:40.894Z,49.99
2019-05-11T10:33:48.939Z,51.42
2019-05-11T10:38:54.576Z,51.77
2019-05-11T10:44:00.550Z,52.00
2019-05-11T10:49:08.032Z,52.20
2019-05-11T10:54:15.154Z,52.14
2019-05-11T10:59:21.149Z,52.86
2019-05-11T11:04:28.788Z,53.53
2019-05-11T11:09:34.825Z,52.73
2019-05-11T11:14:42.359Z,52.88
2019-05-11T11:19:48.748Z,50.66
2019-05-11T11:24:54.989Z,50.86
2019-05-11T11:30:01.498Z,48.96
2019-05-11T11:35:09.724Z,49.13
2019-05-11T11:40:17.692Z,49.84
2019-05-11T11:45:24.072Z,49.89
2019-05-11T11:50:29.946Z,49.84
2019-05-11T11:55:35.916Z,49.87
2019-05-11T12:00:41.781Z,49.00
2019-05-11T12:05:48.373Z,49.69
2019-05-11T12:10:54.549Z,47.94
2019-05-11T12:16:00.590Z,46.68
2019-05-11T12:21:08.046Z,46.98
2019-05-11T12:26:14.308Z,46.78
2019-05-11T12:31:21.093Z,45.44
2019-05-11T12:36:28.064Z,44.75
2019-05-11T12:41:34.220Z,43.06
2019-05-11T12:46:40.436Z,43.60
2019-05-11T12:51:48.594Z,43.49
2019-05-11T12:56:53.487Z,44.20
2019-05-11T13:01:59.349Z,40.24
2019-05-11T13:07:05.454Z,42.89
2019-05-11T13:12:11.416Z,43.20
2019-05-11T13:17:18.634Z,45.03
2019-05-11T13:22:24.796Z,44.65
2019-05-11T13:27:30.768Z,43.28
2019-05-11T13:32:38.487Z,41.07
2019-05-11T13:37:44.014Z,41.04
2019-05-11T13:42:50.215Z,40.83
2019-05-11T13:47:59.168Z,41.17
2019-05-11T13:53:03.825Z,40.60
2019-05-11T13:58:09.890Z,42.15
2019-05-11T14:03:18.235Z,41.08
2019-05-11T14:08:23.614Z,41.30
2019-05-11T14:13:29.731Z,39.56
2019-05-11T14:18:35.803Z,40.74
2019-05-11T14:23:41.768Z,39.42
2019-05-11T14:28:48.239Z,41.17
2019-05-11T14:33:57.915Z,41.10
2019-05-11T14:39:05.520Z,40.92
2019-05-11T14:44:11.509Z,41.89
2019-05-11T14:49:18.346Z,40.94
2019-05-11T14:54:24.458Z,41.01
2019-05-11T14:59:30.465Z,42.77
2019-05-11T15:04:37.897Z,44.60
2019-05-11T15:09:44.161Z,44.30
2019-05-11T15:14:50.142Z,44.67
2019-05-11T15:19:57.945Z,44.80
2019-05-11T15:25:04.527Z,44.05
2019-05-11T15:30:12.411Z,43.37
2019-05-11T15:35:19.102Z,43.50
2019-05-11T15:40:27.664Z,45.89
2019-05-11T15:45:33.301Z,47.32
2019-05-11T15:50:40.179Z,50.08
2019-05-11T15:55:46.767Z,51.69
2019-05-11T16:00:53.041Z,52.74
2019-05-11T16:05:59.114Z,53.60
2019-05-11T16:11:05.041Z,53.28
2019-05-11T16:16:11.051Z,53.93
2019-05-11T16:21:18.116Z,53.52
2019-05-11T16:26:24.326Z,53.32
2019-05-11T16:31:30.295Z,53.65
2019-05-11T16:36:39.002Z,54.10
2019-05-11T16:41:44.596Z,54.83
2019-05-11T16:46:50.962Z,54.78
2019-05-11T16:51:57.355Z,55.38
2019-05-11T16:57:04.573Z,55.44
2019-05-11T17:02:10.627Z,55.58
2019-05-11T17:07:17.623Z,55.99
2019-05-11T17:12:23.593Z,56.01
2019-05-11T17:17:29.900Z,55.89
2019-05-11T17:22:38.761Z,56.42
2019-05-11T17:27:43.763Z,56.58
2019-05-11T17:32:50.158Z,57.18
2019-05-11T17:37:56.721Z,57.33
2019-05-11T17:43:02.697Z,56.36
2019-05-11T17:48:08.681Z,56.44
2019-05-11T17:53:14.755Z,56.64
2019-05-11T17:58:20.813Z,56.94
2019-05-11T18:03:27.851Z,57.58
2019-05-11T18:08:34.081Z,58.17
2019-05-11T18:13:40.362Z,58.48
2019-05-11T18:18:48.335Z,58.92
2019-05-11T18:23:54.051Z,58.98
2019-05-11T18:29:00.016Z,59.26
2019-05-11T18:34:08.751Z,59.40
2019-05-11T18:39:15.067Z,59.26
2019-05-11T18:44:21.105Z,59.59
2019-05-11T18:49:28.557Z,59.55
2019-05-11T18:54:34.889Z,59.66
2019-05-11T18:59:40.758Z,60.05
2019-05-11T19:04:48.374Z,60.33
2019-05-11T19:09:54.241Z,60.21
2019-05-11T19:15:00.305Z,60.07
2019-05-11T19:20:09.965Z,59.89
2019-05-11T19:25:18.266Z,59.79
2019-05-11T19:30:23.649Z,60.02
2019-05-11T19:35:29.678Z,60.21
2019-05-11T19:40:38.402Z,60.49
2019-05-11T19:45:44.123Z,60.54
2019-05-11T19:51:03.874Z,60.83
2019-05-11T19:55:58.424Z,61.23
2019-05-11T20:01:04.600Z,61.58
2019-05-11T20:06:10.562Z,62.14
2019-05-11T20:11:18.546Z,62.52
2019-05-11T20:16:24.043Z,63.03
2019-05-11T20:21:30.152Z,63.18
2019-05-11T20:26:37.835Z,63.80
2019-05-11T20:31:43.800Z,63.86
2019-05-11T20:36:49.772Z,63.76
2019-05-11T20:41:58.083Z,64.02
2019-05-11T20:47:03.352Z,64.38
2019-05-11T20:52:09.423Z,64.31
2019-05-11T20:57:17.852Z,64.33
2019-05-11T21:02:23.005Z,64.00
2019-05-11T21:07:29.489Z,63.59
2019-05-11T21:12:37.845Z,63.83
2019-05-11T21:17:43.280Z,64.31
2019-05-11T21:22:49.861Z,63.87
2019-05-11T21:27:57.771Z,64.05
2019-05-11T21:33:03.440Z,64.56
2019-05-11T21:38:09.409Z,64.60
2019-05-11T21:43:15.383Z,65.19
2019-05-11T21:48:21.251Z,64.81
2019-05-11T21:53:28.794Z,64.40
2019-05-11T21:58:34.825Z,64.35
2019-05-11T22:03:40.800Z,64.61
2019-05-11T22:08:50.570Z,64.79
2019-05-11T22:13:57.764Z,64.72
2019-05-11T22:19:03.327Z,65.66
2019-05-11T22:24:09.304Z,65.73
2019-05-11T22:29:15.258Z,65.20
2019-05-11T22:34:21.241Z,65.49
2019-05-11T22:39:27.206Z,65.68
2019-05-11T22:44:35.795Z,65.82
2019-05-11T22:49:40.786Z,65.41
2019-05-11T22:54:48.481Z,65.58
2019-05-11T22:59:55.490Z,65.31
2019-05-11T23:05:01.472Z,65.32
2019-05-11T23:10:10.108Z,64.84
2019-05-11T23:15:17.709Z,64.70
2019-05-11T23:20:23.817Z,64.89
2019-05-11T23:25:29.855Z,64.54
2019-05-11T23:30:35.823Z,63.85
2019-05-11T23:35:42.025Z,63.85
2019-05-11T23:40:48.248Z,63.61
2019-05-11T23:45:54.563Z,62.92
2019-05-11T23:51:00.426Z,62.98
2019-05-11T23:56:06.397Z,63.14
